createdAt,value
2017-09-02T00:00:28.384Z,78.70
2017-09-02T00:02:55.462Z,79.10
2017-09-02T00:05:22.553Z,78.90
2017-09-02T00:07:49.626Z,78.90
2017-09-02T00:10:16.721Z,78.30
2017-09-02T00:12:43.784Z,78.60
2017-09-02T00:15:10.872Z,78.80
2017-09-02T00:17:38.704Z,78.30
2017-09-02T00:20:05.805Z,78.20
2017-09-02T00:22:32.885Z,78.60
2017-09-02T00:24:59.958Z,78.40
2017-09-02T00:27:27.062Z,78.20
2017-09-02T00:29:54.140Z,77.90
2017-09-02T00:32:21.229Z,78.40
2017-09-02T00:34:49.065Z,78.40
2017-09-02T00:37:16.160Z,78.30
2017-09-02T00:39:43.227Z,78.50
2017-09-02T00:42:10.317Z,79.60
2017-09-02T00:44:37.389Z,78.20
2017-09-02T00:47:05.257Z,77.90
2017-09-02T00:49:33.093Z,78.40
2017-09-02T00:52:00.185Z,78.20
2017-09-02T00:54:27.255Z,78.30
2017-09-02T00:56:54.344Z,78.10
2017-09-02T00:59:21.417Z,78.30
2017-09-02T01:01:48.504Z,78.20
2017-09-02T01:04:15.570Z,78.00
2017-09-02T01:06:42.664Z,78.20
2017-09-02T01:09:10.497Z,78.30
2017-09-02T01:11:37.569Z,78.20
2017-09-02T01:14:04.657Z,78.90
2017-09-02T01:16:31.728Z,78.70
2017-09-02T01:18:58.827Z,78.60
2017-09-02T01:21:26.661Z,79.00
2017-09-02T01:23:53.754Z,78.90
2017-09-02T01:26:20.825Z,79.00
2017-09-02T01:28:47.917Z,79.20
2017-09-02T01:31:14.981Z,79.30
2017-09-02T01:33:42.073Z,79.60
2017-09-02T01:36:09.153Z,79.30
2017-09-02T01:38:36.245Z,79.00
2017-09-02T01:41:04.077Z,79.40
2017-09-02T01:43:31.169Z,79.30
2017-09-02T01:45:58.232Z,79.00
2017-09-02T01:48:25.321Z,79.60
2017-09-02T01:50:52.389Z,80.00
2017-09-02T01:53:20.250Z,79.60
2017-09-02T01:55:48.086Z,79.40
2017-09-02T01:58:15.178Z,79.40
2017-09-02T02:00:42.254Z,79.20
2017-09-02T02:03:09.322Z,79.30
2017-09-02T02:05:36.424Z,78.70
2017-09-02T02:08:04.257Z,78.50
2017-09-02T02:10:31.350Z,78.50
2017-09-02T02:12:58.417Z,79.10
2017-09-02T02:15:25.513Z,80.20
2017-09-02T02:17:52.581Z,79.90
2017-09-02T02:20:19.677Z,79.60
2017-09-02T02:22:46.750Z,79.70
2017-09-02T02:25:13.845Z,79.70
2017-09-02T02:27:40.916Z,79.90
2017-09-02T02:30:08.009Z,79.60
2017-09-02T02:32:35.195Z,79.10
2017-09-02T02:35:02.290Z,79.50
2017-09-02T02:37:29.378Z,79.60
2017-09-02T02:39:57.244Z,79.10
2017-09-02T02:42:24.319Z,79.10
2017-09-02T02:44:51.409Z,79.50
2017-09-02T02:47:18.479Z,79.80
2017-09-02T02:49:46.341Z,79.90
2017-09-02T02:52:13.405Z,79.90
2017-09-02T02:54:41.238Z,79.50
2017-09-02T02:57:08.352Z,79.50
2017-09-02T02:59:35.417Z,79.90
2017-09-02T03:02:02.509Z,79.80
2017-09-02T03:04:29.577Z,79.70
2017-09-02T03:06:56.674Z,80.00
2017-09-02T03:09:23.745Z,80.60
2017-09-02T03:11:50.843Z,80.30
2017-09-02T03:14:17.908Z,80.20
2017-09-02T03:16:45.001Z,80.20
2017-09-02T03:19:12.064Z,79.90
2017-09-02T03:21:39.153Z,79.70
2017-09-02T03:24:06.217Z,79.80
2017-09-02T03:26:33.309Z,80.20
2017-09-02T03:29:00.373Z,80.90
2017-09-02T03:31:27.461Z,80.40
2017-09-02T03:33:54.532Z,79.70
2017-09-02T03:36:21.621Z,79.80
2017-09-02T03:38:48.685Z,80.80
2017-09-02T03:41:15.772Z,80.30
2017-09-02T03:43:42.841Z,80.10
2017-09-02T03:46:10.672Z,79.10
2017-09-02T03:48:37.761Z,79.00
2017-09-02T03:51:04.823Z,79.10
2017-09-02T03:53:31.909Z,79.10
2017-09-02T03:55:58.972Z,78.70
2017-09-02T03:58:26.060Z,78.80
2017-09-02T04:00:53.892Z,79.20
2017-09-02T04:03:21.914Z,79.20
2017-09-02T04:05:48.985Z,79.80
2017-09-02T04:08:16.076Z,80.20
2017-09-02T04:10:43.909Z,80.20
2017-09-02T04:13:10.997Z,80.20
2017-09-02T04:15:38.057Z,80.10
2017-09-02T04:18:05.913Z,80.10
2017-09-02T04:20:33.745Z,79.80
2017-09-02T04:23:00.841Z,79.60
2017-09-02T04:25:27.909Z,79.80
2017-09-02T04:27:55.001Z,79.90
2017-09-02T04:30:22.073Z,79.90
2017-09-02T04:32:49.165Z,80.20
2017-09-02T04:35:16.228Z,80.30
2017-09-02T04:37:43.293Z,80.00
2017-09-02T04:40:10.381Z,80.20
2017-09-02T04:42:37.446Z,79.60
2017-09-02T04:45:04.553Z,79.40
2017-09-02T04:47:31.617Z,80.00
2017-09-02T04:49:58.712Z,80.70
2017-09-02T04:52:25.782Z,81.10
2017-09-02T04:54:52.848Z,81.10
2017-09-02T04:57:19.939Z,80.70
2017-09-02T04:59:47.008Z,80.20
2017-09-02T05:02:14.109Z,80.10
2017-09-02T05:04:41.994Z,80.60
2017-09-02T05:07:09.060Z,80.60
2017-09-02T05:09:36.205Z,80.70
2017-09-02T05:12:03.602Z,81.20
2017-09-02T05:14:31.490Z,81.10
2017-09-02T05:16:58.576Z,81.70
2017-09-02T05:19:25.640Z,81.10
2017-09-02T05:21:52.741Z,81.10
2017-09-02T05:24:19.805Z,80.90
2017-09-02T05:26:46.897Z,80.70
2017-09-02T05:29:13.961Z,80.80
2017-09-02T05:31:41.028Z,81.00
2017-09-02T05:34:08.117Z,81.10
2017-09-02T05:36:35.188Z,81.40
2017-09-02T05:39:02.261Z,81.60
2017-09-02T05:41:29.776Z,81.10
2017-09-02T05:43:57.364Z,81.10
2017-09-02T05:46:25.774Z,81.50
2017-09-02T05:48:53.377Z,81.20
2017-09-02T05:51:21.140Z,81.20
2017-09-02T05:53:48.237Z,81.10
2017-09-02T05:56:15.325Z,81.10
2017-09-02T05:58:42.390Z,80.90
2017-09-02T06:01:09.501Z,80.80
2017-09-02T06:03:36.580Z,80.30
2017-09-02T06:06:03.641Z,80.60
2017-09-02T06:08:30.783Z,80.30
2017-09-02T06:10:57.977Z,80.10
2017-09-02T06:13:25.073Z,80.00
2017-09-02T06:15:52.852Z,80.00
2017-09-02T06:18:20.200Z,79.80
2017-09-02T06:20:47.658Z,80.10
2017-09-02T06:23:15.320Z,80.40
2017-09-02T06:25:42.465Z,79.90
2017-09-02T06:28:09.945Z,80.00
2017-09-02T06:30:37.087Z,80.00
2017-09-02T06:33:04.216Z,80.10
2017-09-02T06:35:31.585Z,79.70
2017-09-02T06:37:58.688Z,80.10
2017-09-02T06:40:26.083Z,81.10
2017-09-02T06:42:54.775Z,81.50
2017-09-02T06:45:21.977Z,80.70
2017-09-02T06:47:49.065Z,80.00
2017-09-02T06:50:16.226Z,80.40
2017-09-02T06:52:43.586Z,81.00
2017-09-02T06:55:10.853Z,80.60
2017-09-02T06:57:38.689Z,81.00
2017-09-02T07:00:05.919Z,80.90
2017-09-02T07:02:33.009Z,80.10
2017-09-02T07:05:00.072Z,80.60
2017-09-02T07:07:27.166Z,79.90
2017-09-02T07:09:54.247Z,79.40
2017-09-02T07:12:21.309Z,79.50
2017-09-02T07:14:48.408Z,79.80
2017-09-02T07:17:15.482Z,79.60
2017-09-02T07:19:42.577Z,79.70
2017-09-02T07:22:09.649Z,79.90
2017-09-02T07:24:36.716Z,80.20
2017-09-02T07:27:03.813Z,80.50
2017-09-02T07:29:30.897Z,79.70
2017-09-02T07:31:58.728Z,80.20
2017-09-02T07:34:48.073Z,80.10
2017-09-02T07:37:15.136Z,80.60
2017-09-02T07:39:42.197Z,80.70
2017-09-02T07:42:09.289Z,80.60
2017-09-02T07:44:36.353Z,81.00
2017-09-02T07:47:03.415Z,81.10
2017-09-02T07:49:30.500Z,81.30
2017-09-02T07:51:57.561Z,81.80
2017-09-02T07:54:24.671Z,82.00
2017-09-02T07:56:51.741Z,82.80
2017-09-02T07:59:18.805Z,82.20
2017-09-02T08:01:45.892Z,82.90
2017-09-02T08:04:12.952Z,83.20
2017-09-02T08:06:40.040Z,81.60
2017-09-02T08:09:07.104Z,81.50
2017-09-02T08:11:34.172Z,80.80
2017-09-02T08:14:02.029Z,81.40
2017-09-02T08:16:29.861Z,81.10
2017-09-02T08:18:56.925Z,81.00
2017-09-02T08:21:24.023Z,82.90
2017-09-02T08:23:51.080Z,81.40
2017-09-02T08:26:18.173Z,82.50
2017-09-02T08:28:45.237Z,82.20
2017-09-02T08:31:12.304Z,83.90
2017-09-02T08:33:39.392Z,84.00
2017-09-02T08:36:07.229Z,83.00
2017-09-02T08:38:34.302Z,82.90
2017-09-02T08:41:01.396Z,82.00
2017-09-02T08:43:28.465Z,80.80
2017-09-02T08:45:55.529Z,80.30
2017-09-02T08:48:22.623Z,80.30
2017-09-02T08:50:49.693Z,80.50
2017-09-02T08:53:16.752Z,81.10
2017-09-02T08:55:43.836Z,81.20
2017-09-02T08:58:10.906Z,81.30
2017-09-02T09:00:37.965Z,81.60
2017-09-02T09:03:05.052Z,81.20
2017-09-02T09:05:32.117Z,81.10
2017-09-02T09:07:59.189Z,81.30
2017-09-02T09:10:26.281Z,80.70
2017-09-02T09:12:54.104Z,80.10
2017-09-02T09:15:21.173Z,80.10
2017-09-02T09:17:48.265Z,78.70
2017-09-02T09:20:15.325Z,78.40
2017-09-02T09:22:42.389Z,78.60
2017-09-02T09:25:09.488Z,80.40
2017-09-02T09:27:37.317Z,80.40
2017-09-02T09:30:04.382Z,80.30
2017-09-02T09:32:31.477Z,79.70
2017-09-02T09:34:58.545Z,79.80
2017-09-02T09:37:25.609Z,80.00
2017-09-02T09:39:52.692Z,78.20
2017-09-02T09:42:19.753Z,76.80
2017-09-02T09:44:46.845Z,78.00
2017-09-02T09:47:13.908Z,77.10
2017-09-02T09:49:41.027Z,77.50
2017-09-02T09:52:08.121Z,78.00
2017-09-02T09:54:35.189Z,77.00
2017-09-02T09:57:02.253Z,77.90
2017-09-02T09:59:29.341Z,76.70
2017-09-02T10:01:56.404Z,76.40
2017-09-02T10:04:23.492Z,77.10
2017-09-02T10:06:50.556Z,76.30
2017-09-02T10:09:17.620Z,76.50
2017-09-02T10:11:44.712Z,76.00
2017-09-02T10:14:11.777Z,76.70
2017-09-02T10:16:39.609Z,75.80
2017-09-02T10:19:06.709Z,75.80
2017-09-02T10:21:33.773Z,74.90
2017-09-02T10:24:00.845Z,75.80
2017-09-02T10:26:27.932Z,75.40
2017-09-02T10:28:54.997Z,74.40
2017-09-02T10:31:22.862Z,76.50
2017-09-02T10:33:49.936Z,76.50
2017-09-02T10:36:17.769Z,74.60
2017-09-02T10:38:44.853Z,74.70
2017-09-02T10:41:11.920Z,73.50
2017-09-02T10:43:39.008Z,73.10
2017-09-02T10:46:06.073Z,72.00
2017-09-02T10:48:33.138Z,74.00
2017-09-02T10:51:00.228Z,71.20
2017-09-02T10:53:27.293Z,69.70
2017-09-02T10:55:54.380Z,67.50
2017-09-02T10:58:21.444Z,68.60
2017-09-02T11:00:48.500Z,69.30
2017-09-02T11:03:15.584Z,69.20
2017-09-02T11:05:42.649Z,68.90
2017-09-02T11:08:10.488Z,70.80
2017-09-02T11:10:37.577Z,70.60
2017-09-02T11:13:04.641Z,67.50
2017-09-02T11:15:31.708Z,69.50
2017-09-02T11:17:58.808Z,66.90
2017-09-02T11:20:26.636Z,69.30
2017-09-02T11:22:53.701Z,69.30
2017-09-02T11:25:20.793Z,68.00
2017-09-02T11:27:47.857Z,68.40
2017-09-02T11:30:14.945Z,68.70
2017-09-02T11:32:42.017Z,67.20
2017-09-02T11:35:09.080Z,67.30
2017-09-02T11:37:36.172Z,67.60
2017-09-02T11:40:03.237Z,66.70
2017-09-02T11:42:30.334Z,66.00
2017-09-02T11:44:57.402Z,66.40
2017-09-02T11:47:24.468Z,66.80
2017-09-02T11:49:51.561Z,64.70
2017-09-02T11:52:18.625Z,63.90
2017-09-02T11:54:45.713Z,64.40
2017-09-02T11:57:12.797Z,64.90
2017-09-02T11:59:40.633Z,65.30
2017-09-02T12:02:07.725Z,64.50
2017-09-02T12:04:35.560Z,65.00
2017-09-02T12:07:02.628Z,65.00
2017-09-02T12:09:29.716Z,64.10
2017-09-02T12:11:56.777Z,65.40
2017-09-02T12:14:23.840Z,64.40
2017-09-02T12:16:50.928Z,64.30
2017-09-02T12:19:17.993Z,62.60
2017-09-02T12:21:45.821Z,64.60
2017-09-02T12:24:12.913Z,64.50
2017-09-02T12:26:39.976Z,62.20
2017-09-02T12:29:07.050Z,65.10
2017-09-02T12:31:34.140Z,63.30
2017-09-02T12:34:01.205Z,62.80
2017-09-02T12:36:28.271Z,57.90
2017-09-02T12:38:55.360Z,58.90
2017-09-02T12:41:22.432Z,61.80
2017-09-02T12:43:49.500Z,60.20
2017-09-02T12:46:16.588Z,61.00
2017-09-02T12:48:43.649Z,62.30
2017-09-02T12:51:10.721Z,61.60
2017-09-02T12:53:37.824Z,62.90
2017-09-02T12:56:04.888Z,61.80
2017-09-02T12:58:31.976Z,63.20
2017-09-02T13:00:59.040Z,63.60
2017-09-02T13:03:26.101Z,62.90
2017-09-02T13:05:53.192Z,62.50
2017-09-02T13:08:20.260Z,62.80
2017-09-02T13:10:48.093Z,63.20
2017-09-02T13:13:15.180Z,63.10
2017-09-02T13:15:43.021Z,59.90
2017-09-02T13:18:10.089Z,59.80
2017-09-02T13:20:37.941Z,60.00
2017-09-02T13:23:05.006Z,60.00
2017-09-02T13:25:32.097Z,58.20
2017-09-02T13:27:59.165Z,59.90
2017-09-02T13:30:26.909Z,60.60
2017-09-02T13:32:54.008Z,59.60
2017-09-02T13:35:21.072Z,61.10
2017-09-02T13:37:48.174Z,60.00
2017-09-02T13:40:15.237Z,61.30
2017-09-02T13:42:42.302Z,61.00
2017-09-02T13:45:10.153Z,58.10
2017-09-02T13:47:37.224Z,57.90
2017-09-02T13:50:04.301Z,58.50
2017-09-02T13:52:31.388Z,59.00
2017-09-02T13:54:58.453Z,58.90
2017-09-02T13:57:25.543Z,56.90
2017-09-02T13:59:52.608Z,57.00
2017-09-02T14:02:19.677Z,57.80
2017-09-02T14:04:46.765Z,59.00
2017-09-02T14:07:13.841Z,52.10
2017-09-02T14:09:41.702Z,55.20
2017-09-02T14:12:08.780Z,55.20
2017-09-02T14:14:35.844Z,55.90
2017-09-02T14:17:02.933Z,51.80
2017-09-02T14:19:30.001Z,52.80
2017-09-02T14:21:57.120Z,53.80
2017-09-02T14:24:24.205Z,53.00
2017-09-02T14:26:51.277Z,52.80
2017-09-02T14:29:18.349Z,55.60
2017-09-02T14:31:45.438Z,56.30
2017-09-02T14:34:12.500Z,56.80
2017-09-02T14:36:39.569Z,56.10
2017-09-02T14:39:06.655Z,56.30
2017-09-02T14:41:33.725Z,56.10
2017-09-02T14:44:00.816Z,56.70
2017-09-02T14:46:27.882Z,54.70
2017-09-02T14:48:54.944Z,53.40
2017-09-02T14:51:22.028Z,52.80
2017-09-02T14:53:49.096Z,52.40
2017-09-02T14:56:16.188Z,52.90
2017-09-02T14:58:43.249Z,54.20
2017-09-02T15:01:11.081Z,55.30
2017-09-02T15:03:38.169Z,55.30
2017-09-02T15:06:05.241Z,57.20
2017-09-02T15:08:32.304Z,55.50
2017-09-02T15:10:59.398Z,54.30
2017-09-02T15:13:26.472Z,52.40
2017-09-02T15:15:53.573Z,51.60
2017-09-02T15:18:20.646Z,50.90
2017-09-02T15:20:47.715Z,52.30
2017-09-02T15:23:14.801Z,44.30
2017-09-02T15:25:41.869Z,42.00
2017-09-02T15:28:08.964Z,39.00
2017-09-02T15:30:36.033Z,39.70
2017-09-02T15:33:03.101Z,38.60
2017-09-02T15:35:30.189Z,39.30
2017-09-02T15:37:58.021Z,47.80
2017-09-02T15:40:25.367Z,47.70
2017-09-02T15:42:52.429Z,50.70
2017-09-02T15:45:19.504Z,51.00
2017-09-02T15:47:47.356Z,52.70
2017-09-02T15:50:14.420Z,52.80
2017-09-02T15:52:42.249Z,54.70
2017-09-02T15:55:09.342Z,54.70
2017-09-02T15:57:36.416Z,56.90
2017-09-02T16:00:03.510Z,58.20
2017-09-02T16:02:30.581Z,60.90
2017-09-02T16:04:57.681Z,61.00
2017-09-02T16:07:24.768Z,61.10
2017-09-02T16:09:52.600Z,63.10
2017-09-02T16:12:19.688Z,63.00
2017-09-02T16:14:46.764Z,64.30
2017-09-02T16:17:13.828Z,64.40
2017-09-02T16:19:40.917Z,66.30
2017-09-02T16:22:07.980Z,67.00
2017-09-02T16:24:35.813Z,69.30
2017-09-02T16:27:02.908Z,69.30
2017-09-02T16:29:29.975Z,70.30
2017-09-02T16:31:57.041Z,71.90
2017-09-02T16:34:24.136Z,71.90
2017-09-02T16:36:51.973Z,70.30
2017-09-02T16:39:19.050Z,69.80
2017-09-02T16:41:46.153Z,70.70
2017-09-02T16:44:13.212Z,71.40
2017-09-02T16:46:40.287Z,71.70
2017-09-02T16:49:07.377Z,70.80
2017-09-02T16:51:34.444Z,71.30
2017-09-02T16:54:01.536Z,70.70
2017-09-02T16:56:28.601Z,70.80
2017-09-02T16:58:55.669Z,71.40
2017-09-02T17:01:22.757Z,72.20
2017-09-02T17:03:49.821Z,72.00
2017-09-02T17:06:16.885Z,72.20
2017-09-02T17:08:44.741Z,74.10
2017-09-02T17:11:11.804Z,73.60
2017-09-02T17:13:39.673Z,73.90
2017-09-02T17:16:07.504Z,73.80
2017-09-02T17:18:34.568Z,73.70
2017-09-02T17:21:01.657Z,74.20
2017-09-02T17:23:28.724Z,74.30
2017-09-02T17:25:55.813Z,73.30
2017-09-02T17:28:22.877Z,75.10
2017-09-02T17:30:50.713Z,76.60
2017-09-02T17:33:17.800Z,76.60
2017-09-02T17:35:45.632Z,78.00
2017-09-02T17:38:12.721Z,77.90
2017-09-02T17:40:39.791Z,73.40
2017-09-02T17:43:06.852Z,75.70
2017-09-02T17:45:33.940Z,76.50
2017-09-02T17:48:01.000Z,76.40
2017-09-02T17:50:28.863Z,76.60
2017-09-02T17:52:56.701Z,77.20
2017-09-02T17:55:23.789Z,76.40
2017-09-02T17:57:51.620Z,76.90
2017-09-02T18:00:18.706Z,76.90
2017-09-02T18:02:45.797Z,77.90
2017-09-02T18:05:12.861Z,77.70
2017-09-02T18:07:39.924Z,77.60
2017-09-02T18:10:07.012Z,77.90
2017-09-02T18:12:34.076Z,78.70
2017-09-02T18:15:01.140Z,79.20
2017-09-02T18:17:28.236Z,80.10
2017-09-02T18:19:55.300Z,79.60
2017-09-02T18:22:22.369Z,79.60
2017-09-02T18:24:49.461Z,80.20
2017-09-02T18:27:16.528Z,79.70
2017-09-02T18:29:44.384Z,80.20
2017-09-02T18:32:11.449Z,79.70
2017-09-02T18:34:38.508Z,79.50
2017-09-02T18:37:05.601Z,79.60
2017-09-02T18:39:32.665Z,79.40
2017-09-02T18:41:59.758Z,79.80
2017-09-02T18:44:26.852Z,79.70
2017-09-02T18:46:53.917Z,79.10
2017-09-02T18:49:21.012Z,79.80
2017-09-02T18:51:48.077Z,80.00
2017-09-02T18:54:15.141Z,79.70
2017-09-02T18:56:42.233Z,80.00
2017-09-02T18:59:09.301Z,80.10
2017-09-02T19:01:36.365Z,80.80
2017-09-02T19:04:03.456Z,80.10
2017-09-02T19:06:30.521Z,80.90
2017-09-02T19:08:57.585Z,80.20
2017-09-02T19:11:25.440Z,81.80
2017-09-02T19:13:52.501Z,81.60
2017-09-02T19:16:19.560Z,81.40
2017-09-02T19:18:46.658Z,80.60
2017-09-02T19:21:13.724Z,81.00
2017-09-02T19:23:40.792Z,81.00
2017-09-02T19:26:08.648Z,81.20
2017-09-02T19:28:35.708Z,81.20
2017-09-02T19:31:02.886Z,80.80
2017-09-02T19:33:29.977Z,80.80
2017-09-02T19:35:57.045Z,81.00
2017-09-02T19:38:24.141Z,80.90
2017-09-02T19:40:51.200Z,81.00
2017-09-02T19:43:18.260Z,80.80
2017-09-02T19:45:45.350Z,81.10
2017-09-02T19:48:13.183Z,81.60
2017-09-02T19:50:40.253Z,81.60
2017-09-02T19:53:07.345Z,81.50
2017-09-02T19:55:34.417Z,81.70
2017-09-02T19:58:01.493Z,81.40
2017-09-02T20:00:28.588Z,81.50
2017-09-02T20:02:55.651Z,78.80
2017-09-02T20:05:22.717Z,79.70
2017-09-02T20:07:49.806Z,79.10
2017-09-02T20:10:17.633Z,78.00
2017-09-02T20:12:44.696Z,78.00
2017-09-02T20:15:11.781Z,77.20
2017-09-02T20:17:38.845Z,77.90
2017-09-02T20:20:05.937Z,78.60
2017-09-02T20:22:33.010Z,78.30
2017-09-02T20:25:00.843Z,77.90
2017-09-02T20:27:27.932Z,77.80
2017-09-02T20:29:54.996Z,78.20
2017-09-02T20:32:22.088Z,78.40
2017-09-02T20:34:49.157Z,78.50
2017-09-02T20:37:16.221Z,78.00
2017-09-02T20:39:43.309Z,77.60
2017-09-02T20:42:10.372Z,77.60
2017-09-02T20:44:37.440Z,76.70
2017-09-02T20:47:04.529Z,76.70
2017-09-02T20:49:31.593Z,76.30
2017-09-02T20:51:58.692Z,75.30
2017-09-02T20:54:25.757Z,75.20
2017-09-02T20:56:52.841Z,74.50
2017-09-02T20:59:19.906Z,75.20
2017-09-02T21:01:47.000Z,76.00
2017-09-02T21:04:14.064Z,75.30
2017-09-02T21:06:41.133Z,74.70
2017-09-02T21:09:08.216Z,73.80
2017-09-02T21:11:35.276Z,74.10
2017-09-02T21:14:02.365Z,74.30
2017-09-02T21:16:29.429Z,75.40
2017-09-02T21:18:56.516Z,75.80
2017-09-02T21:21:23.576Z,75.30
2017-09-02T21:23:50.672Z,76.00
2017-09-02T21:26:17.741Z,75.50
2017-09-02T21:28:44.829Z,76.20
2017-09-02T21:31:11.900Z,75.70
2017-09-02T21:33:38.985Z,75.60
2017-09-02T21:36:06.050Z,76.50
2017-09-02T21:38:33.149Z,77.10
2017-09-02T21:41:00.220Z,76.60
2017-09-02T21:43:27.322Z,76.50
2017-09-02T21:45:54.380Z,76.10
2017-09-02T21:48:21.466Z,75.70
2017-09-02T21:50:48.538Z,75.90
2017-09-02T21:53:15.628Z,76.30
2017-09-02T21:55:42.698Z,76.00
2017-09-02T21:58:09.785Z,76.00
2017-09-02T22:00:36.857Z,75.90
2017-09-02T22:03:04.709Z,77.20
2017-09-02T22:05:31.781Z,77.00
2017-09-02T22:07:58.865Z,77.40
2017-09-02T22:10:26.397Z,77.60
2017-09-02T22:12:54.249Z,77.60
2017-09-02T22:15:21.316Z,77.60
2017-09-02T22:17:48.405Z,77.90
2017-09-02T22:20:15.472Z,77.50
2017-09-02T22:22:42.564Z,78.10
2017-09-02T22:25:09.633Z,77.70
2017-09-02T22:27:36.716Z,77.90
2017-09-02T22:30:03.777Z,78.10
2017-09-02T22:32:30.863Z,78.20
2017-09-02T22:34:57.924Z,78.40
2017-09-02T22:37:25.013Z,77.80
2017-09-02T22:39:52.077Z,77.50
2017-09-02T22:42:19.169Z,78.10
2017-09-02T22:44:46.228Z,78.40
2017-09-02T22:47:13.321Z,77.60
2017-09-02T22:49:40.389Z,78.30
2017-09-02T22:52:08.245Z,78.10
2017-09-02T22:54:35.305Z,78.10
2017-09-02T22:57:02.397Z,78.00
2017-09-02T22:59:29.457Z,78.00
2017-09-02T23:01:57.321Z,77.50
2017-09-02T23:04:24.385Z,77.40
2017-09-02T23:06:51.481Z,77.00
2017-09-02T23:09:18.545Z,77.80
2017-09-02T23:11:45.637Z,77.90
2017-09-02T23:14:12.704Z,78.00
2017-09-02T23:16:40.565Z,78.00
2017-09-02T23:19:07.628Z,78.00
2017-09-02T23:21:34.716Z,77.70
2017-09-02T23:24:01.813Z,78.00
2017-09-02T23:26:28.900Z,79.10
2017-09-02T23:28:55.965Z,78.20
2017-09-02T23:31:23.060Z,77.90
2017-09-02T23:33:50.891Z,79.10
2017-09-02T23:36:17.980Z,79.10
2017-09-02T23:38:45.808Z,79.80
2017-09-02T23:41:12.897Z,79.90
2017-09-02T23:43:40.728Z,79.70
2017-09-02T23:46:07.821Z,79.50
2017-09-02T23:48:34.889Z,79.40
2017-09-02T23:51:01.977Z,79.80
2017-09-02T23:53:29.044Z,78.70
2017-09-02T23:55:56.132Z,78.60
2017-09-02T23:58:23.197Z,78.50
